Time;durP1;ratioP1;P1;durP2;ratioP2;P2;SDS_P1;SDS_P2;PMS_P1;PMS_P2;Temp;Humidity;BMP_temperature;BMP_pressure;BME280_temperature;BME280_humidity;BME280_pressure;Samples;Min_cycle;Max_cycle;Signal;HPM_P1;HPM_P2
2023/07/02 00:01:16;;;;;;;1.92;1.42;;;;;;;;;;2071967;28;20022;-78
2023/07/02 00:02:36;;;;;;;2.13;1.65;;;;;;;;;;2070985;28;20029;-77
2023/07/02 00:03:55;;;;;;;2.92;1.60;;;;;;;;;;2072783;28;20038;-79
2023/07/02 00:05:14;;;;;;;1.60;1.50;;;;;;;;;;2071288;28;20026;-79
2023/07/02 00:06:40;;;;;;;2.53;1.75;;;;;;;;;;2072787;28;20395;-78
2023/07/02 00:07:59;;;;;;;1.98;1.60;;;;;;;;;;2065640;28;20547;-78
2023/07/02 00:09:18;;;;;;;2.08;1.95;;;;;;;;;;2067312;28;20487;-78
2023/07/02 00:10:37;;;;;;;3.63;1.60;;;;;;;;;;2071614;28;20030;-78
2023/07/02 00:11:56;;;;;;;1.65;1.55;;;;;;;;;;2072167;28;20104;-78
2023/07/02 00:13:15;;;;;;;1.60;1.50;;;;;;;;;;2072377;28;20030;-77
2023/07/02 00:14:34;;;;;;;2.28;1.70;;;;;;;;;;2072491;28;20026;-78
2023/07/02 00:15:54;;;;;;;2.90;2.10;;;;;;;;;;2072477;28;20018;-78
2023/07/02 00:17:13;;;;;;;4.00;2.35;;;;;;;;;;2070382;28;20026;-77
2023/07/02 00:18:34;;;;;;;1.73;1.63;;;;;;;;;;2063709;28;20031;-78
2023/07/02 00:19:53;;;;;;;1.80;1.70;;;;;;;;;;2069143;28;20383;-79
2023/07/02 00:21:13;;;;;;;1.73;1.63;;;;;;;;;;2063878;28;20021;-76
2023/07/02 00:22:36;;;;;;;1.63;1.52;;;;;;;;;;2061336;28;20027;-77
2023/07/02 00:23:56;;;;;;;;;;;;;;;;;;2064033;28;20027;-77
2023/07/02 00:25:16;;;;;;;3.63;2.00;;;;;;;;;;2064544;28;20355;-78
2023/07/02 00:26:35;;;;;;;2.08;1.98;;;;;;;;;;2070039;28;20131;-78
2023/07/02 00:27:54;;;;;;;1.75;1.65;;;;;;;;;;2062726;28;20034;-79
2023/07/02 00:29:13;;;;;;;1.98;1.50;;;;;;;;;;2068525;28;20069;-77
2023/07/02 00:30:32;;;;;;;2.60;1.83;;;;;;;;;;2070707;28;20018;-77
2023/07/02 00:31:51;;;;;;;1.65;1.55;;;;;;;;;;2071962;28;20026;-76
2023/07/02 00:33:10;;;;;;;4.13;1.75;;;;;;;;;;2061868;28;20030;-77
2023/07/02 00:34:29;;;;;;;1.67;1.58;;;;;;;;;;2064201;28;20184;-78
2023/07/02 00:35:48;;;;;;;2.85;1.70;;;;;;;;;;2061201;28;20105;-78
2023/07/02 00:37:07;;;;;;;1.88;1.77;;;;;;;;;;2062056;28;20038;-77
2023/07/02 00:38:26;;;;;;;3.28;1.60;;;;;;;;;;2063534;28;20038;-77
2023/07/02 00:39:45;;;;;;;2.97;1.85;;;;;;;;;;2064628;28;20034;-77
2023/07/02 00:41:04;;;;;;;1.95;1.85;;;;;;;;;;2062229;28;20022;-77
2023/07/02 00:42:23;;;;;;;2.17;1.98;;;;;;;;;;2063745;28;20034;-78
2023/07/02 00:43:45;;;;;;;1.80;1.70;;;;;;;;;;2063061;28;20725;-78
2023/07/02 00:45:05;;;;;;;1.65;1.55;;;;;;;;;;2063109;28;20030;-78
2023/07/02 00:46:25;;;;;;;1.92;1.73;;;;;;;;;;2071897;28;20034;-77
2023/07/02 00:47:45;;;;;;;2.63;1.67;;;;;;;;;;2067717;28;20034;-77
2023/07/02 00:49:04;;;;;;;2.40;2.10;;;;;;;;;;2063124;28;20026;-78
2023/07/02 00:50:23;;;;;;;1.77;1.67;;;;;;;;;;2064119;28;20435;-78
2023/07/02 00:51:42;;;;;;;2.17;1.95;;;;;;;;;;2063393;28;20459;-77
2023/07/02 00:53:03;;;;;;;1.88;1.77;;;;;;;;;;2056810;28;20030;-79
2023/07/02 00:54:21;;;;;;;1.77;1.67;;;;;;;;;;2063456;28;20030;-77
2023/07/02 00:55:41;;;;;;;3.75;1.98;;;;;;;;;;2064158;28;20513;-77
2023/07/02 00:57:03;;;;;;;1.92;1.52;;;;;;;;;;2062847;28;20022;-78
2023/07/02 00:58:22;;;;;;;1.70;1.60;;;;;;;;;;2063542;28;20027;-78
2023/07/02 00:59:41;;;;;;;1.70;1.60;;;;;;;;;;2063354;28;20034;-77
2023/07/02 01:01:00;;;;;;;2.53;1.83;;;;;;;;;;2059968;28;20026;-78
2023/07/02 01:02:20;;;;;;;2.40;1.70;;;;;;;;;;2064639;28;20472;-77
2023/07/02 01:03:40;;;;;;;3.25;2.00;;;;;;;;;;2061288;28;20034;-77
2023/07/02 01:05:00;;;;;;;2.33;2.22;;;;;;;;;;2064480;28;20027;-78
2023/07/02 01:06:24;;;;;;;1.40;1.40;;;;;;;;;;2064098;28;20031;-77
2023/07/02 01:07:43;;;;;;;1.90;1.80;;;;;;;;;;2064028;28;20476;-77
2023/07/02 01:09:04;;;;;;;2.85;1.85;;;;;;;;;;2060920;28;20035;-77
2023/07/02 01:10:23;;;;;;;2.30;2.10;;;;;;;;;;2061449;28;20059;-77
2023/07/02 01:11:45;;;;;;;2.63;1.52;;;;;;;;;;2062996;28;20038;-77
2023/07/02 01:13:13;;;;;;;3.15;1.90;;;;;;;;;;2062011;28;20031;-78
2023/07/02 01:14:37;;;;;;;2.22;1.80;;;;;;;;;;2064295;28;20034;-76
2023/07/02 01:15:56;;;;;;;4.25;1.90;;;;;;;;;;2064911;28;20125;-76
2023/07/02 01:17:18;;;;;;;2.17;1.73;;;;;;;;;;2064815;28;20026;-77
2023/07/02 01:18:38;;;;;;;3.50;2.00;;;;;;;;;;2063262;28;20467;-75
2023/07/02 01:19:58;;;;;;;2.58;2.38;;;;;;;;;;2058770;28;20038;-77
2023/07/02 01:21:21;;;;;;;3.63;2.00;;;;;;;;;;2061044;28;20563;-77
2023/07/02 01:22:40;;;;;;;1.98;1.85;;;;;;;;;;2065058;28;20435;-78
2023/07/02 01:24:01;;;;;;;3.45;1.95;;;;;;;;;;2065853;28;20026;-76
2023/07/02 01:25:24;;;;;;;2.15;2.05;;;;;;;;;;2064417;28;20062;-78
2023/07/02 01:26:45;;;;;;;5.72;2.35;;;;;;;;;;2064365;28;20029;-77
2023/07/02 01:28:04;;;;;;;2.00;1.90;;;;;;;;;;2063305;28;20034;-77
2023/07/02 01:29:23;;;;;;;2.45;1.90;;;;;;;;;;2063717;28;20030;-79
2023/07/02 01:30:41;;;;;;;2.67;2.22;;;;;;;;;;2064711;28;20022;-77
2023/07/02 01:32:00;;;;;;;2.67;2.20;;;;;;;;;;2061178;28;20019;-78
2023/07/02 01:33:19;;;;;;;2.03;1.80;;;;;;;;;;2061418;28;20034;-78
2023/07/02 01:34:38;;;;;;;3.53;1.95;;;;;;;;;;2069170;28;20030;-78
2023/07/02 01:35:58;;;;;;;2.20;2.10;;;;;;;;;;2075083;28;20026;-78
2023/07/02 01:37:18;;;;;;;2.38;2.17;;;;;;;;;;2073089;28;20050;-76
2023/07/02 01:38:37;;;;;;;2.50;2.30;;;;;;;;;;2072313;28;20069;-78
2023/07/02 01:39:55;;;;;;;3.05;2.20;;;;;;;;;;2071495;28;20430;-79
2023/07/02 01:41:17;;;;;;;2.40;2.30;;;;;;;;;;2072325;28;20034;-77
2023/07/02 01:42:37;;;;;;;2.63;2.40;;;;;;;;;;2072025;28;20030;-78
2023/07/02 01:43:56;;;;;;;2.58;2.28;;;;;;;;;;2062815;28;20106;-79
2023/07/02 01:45:15;;;;;;;3.10;1.90;;;;;;;;;;2068226;28;20022;-78
2023/07/02 01:46:34;;;;;;;2.17;1.90;;;;;;;;;;2073525;28;20030;-77
2023/07/02 01:47:53;;;;;;;5.60;2.03;;;;;;;;;;2064706;28;20030;-78
2023/07/02 01:49:12;;;;;;;3.70;2.00;;;;;;;;;;2068660;28;20018;-78
2023/07/02 01:50:30;;;;;;;3.70;2.13;;;;;;;;;;2066138;28;20030;-77
2023/07/02 01:51:53;;;;;;;3.05;2.25;;;;;;;;;;2065883;28;20026;-77
2023/07/02 01:53:12;;;;;;;3.33;2.53;;;;;;;;;;2060536;28;20439;-77
2023/07/02 01:54:31;;;;;;;2.92;1.90;;;;;;;;;;2062822;28;20038;-78
2023/07/02 01:55:51;;;;;;;3.38;2.55;;;;;;;;;;2070400;28;20025;-78
2023/07/02 01:57:10;;;;;;;2.20;2.10;;;;;;;;;;2063581;28;20026;-78
2023/07/02 01:58:29;;;;;;;2.55;1.95;;;;;;;;;;2066778;28;20042;-78
2023/07/02 01:59:48;;;;;;;4.07;2.00;;;;;;;;;;2063437;28;20034;-79
2023/07/02 02:01:07;;;;;;;2.42;2.25;;;;;;;;;;2067803;28;20057;-79
2023/07/02 02:02:26;;;;;;;3.95;2.33;;;;;;;;;;2074047;28;20549;-77
2023/07/02 02:03:45;;;;;;;2.40;2.20;;;;;;;;;;2065297;28;20027;-76
2023/07/02 02:05:04;;;;;;;3.20;2.20;;;;;;;;;;2069668;28;20545;-76
2023/07/02 02:06:26;;;;;;;2.22;2.13;;;;;;;;;;2074739;28;20073;-77
2023/07/02 02:07:45;;;;;;;3.35;2.25;;;;;;;;;;2074533;28;20034;-78
2023/07/02 02:09:07;;;;;;;2.47;2.25;;;;;;;;;;2070981;28;20034;-77
2023/07/02 02:10:26;;;;;;;2.08;1.85;;;;;;;;;;2059912;28;20027;-78
2023/07/02 02:11:48;;;;;;;3.35;2.20;;;;;;;;;;2069851;28;20053;-75
2023/07/02 02:13:07;;;;;;;2.65;2.40;;;;;;;;;;2073494;28;20018;-76
2023/07/02 02:14:26;;;;;;;2.90;2.70;;;;;;;;;;2075595;28;20026;-77
2023/07/02 02:15:45;;;;;;;3.60;2.10;;;;;;;;;;2073169;28;20511;-78
2023/07/02 02:17:07;;;;;;;2.70;2.50;;;;;;;;;;2071428;28;20116;-76
2023/07/02 02:18:26;;;;;;;4.85;3.10;;;;;;;;;;2071720;28;20030;-77
2023/07/02 02:19:45;;;;;;;2.60;2.40;;;;;;;;;;2073834;28;20025;-77
2023/07/02 02:21:06;;;;;;;3.42;2.63;;;;;;;;;;2072002;28;20033;-79
2023/07/02 02:22:25;;;;;;;2.78;2.58;;;;;;;;;;2065253;28;20051;-78
2023/07/02 02:23:47;;;;;;;2.60;2.00;;;;;;;;;;2070128;28;20041;-78
2023/07/02 02:25:06;;;;;;;5.82;2.50;;;;;;;;;;2062844;28;20069;-77
2023/07/02 02:26:26;;;;;;;2.85;2.65;;;;;;;;;;2069231;28;20037;-76
2023/07/02 02:27:46;;;;;;;2.72;2.53;;;;;;;;;;2065370;28;20026;-78
2023/07/02 02:29:05;;;;;;;2.70;2.50;;;;;;;;;;2058992;28;20050;-77
2023/07/02 02:30:23;;;;;;;2.55;2.20;;;;;;;;;;2068043;28;20439;-76
2023/07/02 02:31:43;;;;;;;3.17;2.10;;;;;;;;;;2065324;28;20443;-77
2023/07/02 02:33:02;;;;;;;2.65;2.30;;;;;;;;;;2069071;28;20029;-76
2023/07/02 02:34:21;;;;;;;2.85;2.50;;;;;;;;;;2065613;28;20038;-77
2023/07/02 02:35:39;;;;;;;2.60;2.40;;;;;;;;;;2055768;28;20030;-77
2023/07/02 02:36:58;;;;;;;3.75;2.17;;;;;;;;;;2060108;28;20026;-78
2023/07/02 02:38:17;;;;;;;2.70;2.55;;;;;;;;;;2065131;28;20109;-77
2023/07/02 02:39:36;;;;;;;2.85;2.65;;;;;;;;;;2056115;28;20039;-77
2023/07/02 02:40:55;;;;;;;2.63;2.42;;;;;;;;;;2061423;28;20451;-77
2023/07/02 02:42:14;;;;;;;3.33;2.58;;;;;;;;;;2065888;28;20035;-77
2023/07/02 02:43:34;;;;;;;4.00;2.40;;;;;;;;;;2064619;28;20034;-78
2023/07/02 02:44:53;;;;;;;1.90;1.80;;;;;;;;;;2064357;28;20026;-77
2023/07/02 02:46:15;;;;;;;4.07;2.35;;;;;;;;;;2056952;28;20027;-77
2023/07/02 02:47:34;;;;;;;2.15;2.05;;;;;;;;;;2059068;28;20038;-78
2023/07/02 02:48:53;;;;;;;2.97;2.63;;;;;;;;;;2063116;28;20511;-78
2023/07/02 02:50:12;;;;;;;2.53;2.30;;;;;;;;;;2056571;28;20027;-77
2023/07/02 02:51:31;;;;;;;2.00;1.90;;;;;;;;;;2060292;28;20030;-76
2023/07/02 02:52:50;;;;;;;2.47;2.35;;;;;;;;;;2061605;28;20113;-77
2023/07/02 02:54:09;;;;;;;2.40;2.28;;;;;;;;;;2065062;28;20022;-77
2023/07/02 02:55:28;;;;;;;2.17;2.05;;;;;;;;;;2055685;28;20027;-79
2023/07/02 02:56:46;;;;;;;3.80;2.42;;;;;;;;;;2060195;28;20026;-77
2023/07/02 02:58:07;;;;;;;2.97;2.78;;;;;;;;;;2056718;28;20027;-77
2023/07/02 02:59:27;;;;;;;2.60;2.40;;;;;;;;;;2060778;28;20034;-77
2023/07/02 03:00:49;;;;;;;3.08;2.78;;;;;;;;;;2054720;28;20038;-78
2023/07/02 03:02:07;;;;;;;2.05;1.95;;;;;;;;;;2062132;28;20035;-77
2023/07/02 03:03:26;;;;;;;4.70;2.40;;;;;;;;;;2064101;28;20066;-78
2023/07/02 03:04:45;;;;;;;2.63;2.42;;;;;;;;;;2055049;28;20507;-78
2023/07/02 03:06:05;;;;;;;2.92;2.72;;;;;;;;;;2061773;28;20038;-78
2023/07/02 03:07:24;;;;;;;2.63;2.53;;;;;;;;;;2055551;28;20030;-78
2023/07/02 03:08:43;;;;;;;3.10;2.83;;;;;;;;;;2059644;28;20038;-78
2023/07/02 03:10:02;;;;;;;2.67;2.45;;;;;;;;;;2064410;28;20038;-77
2023/07/02 03:11:21;;;;;;;2.70;2.50;;;;;;;;;;2063858;28;20026;-77
2023/07/02 03:12:40;;;;;;;3.38;3.05;;;;;;;;;;2064129;28;20018;-75
2023/07/02 03:14:00;;;;;;;2.97;2.60;;;;;;;;;;2065525;28;20034;-79
2023/07/02 03:15:19;;;;;;;2.55;2.45;;;;;;;;;;2063563;28;20383;-77
2023/07/02 03:16:38;;;;;;;3.13;2.92;;;;;;;;;;2064534;28;20030;-77
2023/07/02 03:17:57;;;;;;;3.83;2.70;;;;;;;;;;2053709;28;20034;-77
2023/07/02 03:19:16;;;;;;;3.75;2.50;;;;;;;;;;2052197;28;20499;-76
2023/07/02 03:20:35;;;;;;;3.58;2.58;;;;;;;;;;2060998;28;20034;-78
2023/07/02 03:21:54;;;;;;;2.67;2.47;;;;;;;;;;2063977;28;20109;-76
2023/07/02 03:23:13;;;;;;;2.45;2.33;;;;;;;;;;2055581;28;20519;-77
2023/07/02 03:24:34;;;;;;;2.97;2.78;;;;;;;;;;2060588;28;20050;-78
2023/07/02 03:25:53;;;;;;;2.45;2.25;;;;;;;;;;2055914;28;20019;-76
2023/07/02 03:27:11;;;;;;;3.15;2.40;;;;;;;;;;2060413;28;20495;-78
2023/07/02 03:28:31;;;;;;;2.85;2.35;;;;;;;;;;2055324;28;20043;-76
2023/07/02 03:29:51;;;;;;;2.85;2.65;;;;;;;;;;2060123;28;20030;-78
2023/07/02 03:31:10;;;;;;;2.88;2.63;;;;;;;;;;2063181;28;20023;-76
2023/07/02 03:32:29;;;;;;;2.58;2.25;;;;;;;;;;2056845;28;20034;-75
2023/07/02 03:33:48;;;;;;;2.42;2.30;;;;;;;;;;2060253;28;20423;-75
2023/07/02 03:35:10;;;;;;;2.40;2.25;;;;;;;;;;2070796;28;20472;-77
2023/07/02 03:36:29;;;;;;;2.40;2.25;;;;;;;;;;2069605;28;20025;-78
2023/07/02 03:37:49;;;;;;;2.28;2.15;;;;;;;;;;2072080;28;20026;-77
2023/07/02 03:39:08;;;;;;;2.28;2.08;;;;;;;;;;2071390;28;20476;-78
2023/07/02 03:40:28;;;;;;;2.50;2.33;;;;;;;;;;2069624;28;20113;-77
2023/07/02 03:41:47;;;;;;;2.50;2.33;;;;;;;;;;2061345;28;20534;-76
2023/07/02 03:43:06;;;;;;;2.17;1.98;;;;;;;;;;2061879;28;20033;-76
2023/07/02 03:44:25;;;;;;;3.05;2.25;;;;;;;;;;2070437;28;20042;-76
2023/07/02 03:45:44;;;;;;;2.00;1.90;;;;;;;;;;2071555;28;20094;-78
2023/07/02 03:47:03;;;;;;;2.00;1.90;;;;;;;;;;2070542;28;20034;-77
2023/07/02 03:48:22;;;;;;;2.53;1.90;;;;;;;;;;2072909;28;20026;-77
2023/07/02 03:49:42;;;;;;;2.30;2.20;;;;;;;;;;2072361;28;20030;-75
2023/07/02 03:51:01;;;;;;;2.83;2.63;;;;;;;;;;2070131;28;20026;-76
2023/07/02 03:52:23;;;;;;;2.72;2.30;;;;;;;;;;2072560;28;20034;-76
2023/07/02 03:53:42;;;;;;;2.83;2.20;;;;;;;;;;2069841;28;20037;-75
2023/07/02 03:55:01;;;;;;;3.28;2.42;;;;;;;;;;2071141;28;20260;-77
2023/07/02 03:56:21;;;;;;;2.50;2.30;;;;;;;;;;2072116;28;20116;-77
2023/07/02 03:57:40;;;;;;;2.75;2.10;;;;;;;;;;2070304;28;20136;-77
2023/07/02 03:58:59;;;;;;;3.38;2.20;;;;;;;;;;2071147;28;20018;-78
2023/07/02 04:00:18;;;;;;;4.00;2.15;;;;;;;;;;2071946;28;20022;-77
2023/07/02 04:01:36;;;;;;;2.72;2.28;;;;;;;;;;2071995;28;20025;-78
2023/07/02 04:02:55;;;;;;;2.38;2.17;;;;;;;;;;2071204;28;20034;-78
2023/07/02 04:04:17;;;;;;;2.35;2.20;;;;;;;;;;2071995;28;20026;-78
2023/07/02 04:05:36;;;;;;;2.70;2.50;;;;;;;;;;2072373;28;20018;-77
2023/07/02 04:06:55;;;;;;;3.08;2.20;;;;;;;;;;2074344;28;20048;-77
2023/07/02 04:08:14;;;;;;;2.78;2.33;;;;;;;;;;2070090;28;20030;-79
2023/07/02 04:09:33;;;;;;;2.17;1.98;;;;;;;;;;2069060;28;20105;-78
2023/07/02 04:10:52;;;;;;;3.08;2.67;;;;;;;;;;2071297;28;20038;-78
2023/07/02 04:12:11;;;;;;;1.98;1.88;;;;;;;;;;2071173;28;20034;-79
2023/07/02 04:13:30;;;;;;;3.55;2.17;;;;;;;;;;2072254;28;20026;-78
2023/07/02 04:14:49;;;;;;;2.17;2.00;;;;;;;;;;2069958;28;20511;-77
2023/07/02 04:16:08;;;;;;;3.08;2.22;;;;;;;;;;2076894;28;20108;-77
2023/07/02 04:17:28;;;;;;;2.30;2.15;;;;;;;;;;2073101;28;20061;-77
2023/07/02 04:18:47;;;;;;;2.33;2.13;;;;;;;;;;2070381;28;20026;-78
2023/07/02 04:20:07;;;;;;;2.85;2.38;;;;;;;;;;2067455;28;20411;-77
2023/07/02 04:21:27;;;;;;;7.72;2.03;;;;;;;;;;2066504;28;20510;-77
2023/07/02 04:22:46;;;;;;;2.60;1.95;;;;;;;;;;2070834;28;20074;-78
2023/07/02 04:24:05;;;;;;;2.10;2.00;;;;;;;;;;2072602;28;20034;-79
2023/07/02 04:25:24;;;;;;;2.38;2.17;;;;;;;;;;2065997;28;20317;-77
2023/07/02 04:26:45;;;;;;;3.22;2.13;;;;;;;;;;2071138;28;20030;-78
2023/07/02 04:28:04;;;;;;;2.38;2.15;;;;;;;;;;2070875;28;20065;-78
2023/07/02 04:29:23;;;;;;;2.22;2.08;;;;;;;;;;2069444;28;20026;-77
2023/07/02 04:30:42;;;;;;;2.30;1.95;;;;;;;;;;2066697;28;20029;-79
2023/07/02 04:32:01;;;;;;;2.15;2.05;;;;;;;;;;2069872;28;20026;-78
2023/07/02 04:33:20;;;;;;;2.70;2.50;;;;;;;;;;2070393;28;20033;-77
2023/07/02 04:34:39;;;;;;;2.40;2.20;;;;;;;;;;2068387;28;20018;-78
2023/07/02 04:35:58;;;;;;;2.45;2.25;;;;;;;;;;2072620;28;20034;-79
2023/07/02 04:37:17;;;;;;;3.03;2.38;;;;;;;;;;2069407;28;20057;-79
2023/07/02 04:38:39;;;;;;;2.03;1.92;;;;;;;;;;2070512;28;20026;-78
2023/07/02 04:39:58;;;;;;;2.08;1.85;;;;;;;;;;2070290;28;20034;-77
2023/07/02 04:41:19;;;;;;;2.38;2.17;;;;;;;;;;2071727;28;20121;-79
2023/07/02 04:42:38;;;;;;;2.08;1.95;;;;;;;;;;2064704;28;20034;-79
2023/07/02 04:43:57;;;;;;;2.13;1.90;;;;;;;;;;2067609;28;20034;-77
2023/07/02 04:45:16;;;;;;;2.25;1.52;;;;;;;;;;2067292;28;20038;-77
2023/07/02 04:46:35;;;;;;;2.67;2.00;;;;;;;;;;2072069;28;20033;-77
2023/07/02 04:47:54;;;;;;;2.00;1.90;;;;;;;;;;2071951;28;20026;-77
2023/07/02 04:49:14;;;;;;;2.42;2.08;;;;;;;;;;2074977;28;20538;-77
2023/07/02 04:50:33;;;;;;;2.00;1.90;;;;;;;;;;2063020;28;20034;-80
2023/07/02 04:51:53;;;;;;;1.90;1.80;;;;;;;;;;2066916;28;20026;-79
2023/07/02 04:53:12;;;;;;;1.75;1.65;;;;;;;;;;2066891;28;20160;-77
2023/07/02 04:54:31;;;;;;;2.10;1.90;;;;;;;;;;2068269;28;20025;-76
2023/07/02 04:55:50;;;;;;;2.28;2.15;;;;;;;;;;2072324;28;20103;-77
2023/07/02 04:57:09;;;;;;;2.10;2.00;;;;;;;;;;2073795;28;20041;-77
2023/07/02 04:58:28;;;;;;;1.92;1.80;;;;;;;;;;2074599;28;20025;-76
2023/07/02 04:59:47;;;;;;;1.75;1.65;;;;;;;;;;2073308;28;20022;-77
2023/07/02 05:01:06;;;;;;;2.95;2.22;;;;;;;;;;2072380;28;20026;-77
2023/07/02 05:02:25;;;;;;;2.97;1.83;;;;;;;;;;2072579;28;20607;-77
2023/07/02 05:03:44;;;;;;;1.83;1.73;;;;;;;;;;2072304;28;20037;-77
2023/07/02 05:05:03;;;;;;;2.15;2.05;;;;;;;;;;2069981;28;20029;-77
2023/07/02 05:06:22;;;;;;;2.55;2.00;;;;;;;;;;2070433;28;20037;-77
2023/07/02 05:07:41;;;;;;;1.92;1.83;;;;;;;;;;2072235;28;20034;-77
2023/07/02 05:09:00;;;;;;;2.17;1.80;;;;;;;;;;2070176;28;20027;-77
2023/07/02 05:10:19;;;;;;;1.77;1.67;;;;;;;;;;2072312;28;20018;-77
2023/07/02 05:11:38;;;;;;;3.38;2.03;;;;;;;;;;2071680;28;20022;-77
2023/07/02 05:12:57;;;;;;;2.42;2.10;;;;;;;;;;2071788;28;20077;-78
2023/07/02 05:14:15;;;;;;;1.80;1.70;;;;;;;;;;2072652;28;20022;-79
2023/07/02 05:15:34;;;;;;;1.92;1.83;;;;;;;;;;2073396;28;20105;-78
2023/07/02 05:16:53;;;;;;;2.35;2.17;;;;;;;;;;2072250;28;20113;-76
2023/07/02 05:18:12;;;;;;;2.45;2.25;;;;;;;;;;2071700;28;20030;-77
2023/07/02 05:19:31;;;;;;;2.42;2.30;;;;;;;;;;2071392;28;20113;-78
2023/07/02 05:20:50;;;;;;;1.98;1.88;;;;;;;;;;2073893;28;20109;-79
2023/07/02 05:22:10;;;;;;;2.25;2.08;;;;;;;;;;2069384;28;20077;-77
2023/07/02 05:23:29;;;;;;;2.33;2.13;;;;;;;;;;2073247;28;20065;-77
2023/07/02 05:24:48;;;;;;;2.22;2.03;;;;;;;;;;2073652;28;20124;-77
2023/07/02 05:26:07;;;;;;;2.20;2.10;;;;;;;;;;2072843;28;20077;-78
2023/07/02 05:27:26;;;;;;;1.85;1.75;;;;;;;;;;2072460;28;20058;-77
2023/07/02 05:28:45;;;;;;;1.60;1.50;;;;;;;;;;2080058;28;20029;-77
2023/07/02 05:30:04;;;;;;;2.00;1.90;;;;;;;;;;2082542;28;20030;-78
2023/07/02 05:31:23;;;;;;;1.60;1.50;;;;;;;;;;2080817;28;20029;-77
2023/07/02 05:32:42;;;;;;;1.73;1.63;;;;;;;;;;2083216;28;20038;-77
2023/07/02 05:34:01;;;;;;;1.80;1.65;;;;;;;;;;2082005;28;20045;-77
2023/07/02 05:35:21;;;;;;;3.15;1.50;;;;;;;;;;2068135;28;20034;-77
2023/07/02 05:36:40;;;;;;;1.90;1.50;;;;;;;;;;2077418;28;20050;-78
2023/07/02 05:37:59;;;;;;;2.40;1.50;;;;;;;;;;2080944;28;20026;-78
2023/07/02 05:39:18;;;;;;;1.92;1.83;;;;;;;;;;2072643;28;20484;-78
2023/07/02 05:40:37;;;;;;;1.60;1.50;;;;;;;;;;2075051;28;20034;-79
2023/07/02 05:41:56;;;;;;;1.60;1.50;;;;;;;;;;2073886;28;20029;-78
2023/07/02 05:43:15;;;;;;;1.83;1.45;;;;;;;;;;2073110;28;20112;-79
2023/07/02 05:44:34;;;;;;;2.20;2.00;;;;;;;;;;2068821;28;20116;-76
2023/07/02 05:45:53;;;;;;;1.63;1.50;;;;;;;;;;2072106;28;20026;-77
2023/07/02 05:47:12;;;;;;;2.15;1.48;;;;;;;;;;2070992;28;20076;-76
2023/07/02 05:48:31;;;;;;;2.63;1.60;;;;;;;;;;2071481;28;20325;-76
2023/07/02 05:49:50;;;;;;;1.65;1.55;;;;;;;;;;2070179;28;20029;-77
2023/07/02 05:51:09;;;;;;;1.95;1.45;;;;;;;;;;2070976;28;20030;-78
2023/07/02 05:52:28;;;;;;;2.17;1.50;;;;;;;;;;2073544;28;20022;-76
2023/07/02 05:53:47;;;;;;;2.05;1.35;;;;;;;;;;2072828;28;21450;-76
2023/07/02 05:55:07;;;;;;;2.70;1.75;;;;;;;;;;2071878;28;20069;-76
2023/07/02 05:56:27;;;;;;;1.50;1.40;;;;;;;;;;2071879;28;20030;-76
2023/07/02 05:57:46;;;;;;;2.55;1.70;;;;;;;;;;2065683;28;20454;-77
2023/07/02 05:59:05;;;;;;;2.55;1.55;;;;;;;;;;2069162;28;20116;-75
2023/07/02 06:00:24;;;;;;;2.88;1.30;;;;;;;;;;2071034;28;20113;-76
2023/07/02 06:01:43;;;;;;;2.53;1.33;;;;;;;;;;2061119;28;20027;-77
2023/07/02 06:03:03;;;;;;;1.80;1.70;;;;;;;;;;2068097;28;20025;-76
2023/07/02 06:04:21;;;;;;;1.50;1.40;;;;;;;;;;2069727;28;20582;-75
2023/07/02 06:05:40;;;;;;;2.85;1.42;;;;;;;;;;2069252;28;20041;-75
2023/07/02 06:06:59;;;;;;;1.77;1.67;;;;;;;;;;2071157;28;20101;-76
2023/07/02 06:08:21;;;;;;;2.22;1.50;;;;;;;;;;2063460;28;20085;-75
2023/07/02 06:09:40;;;;;;;1.60;1.50;;;;;;;;;;2066971;28;20026;-75
2023/07/02 06:10:59;;;;;;;1.77;1.35;;;;;;;;;;2070718;28;20026;-76
2023/07/02 06:12:18;;;;;;;1.40;1.30;;;;;;;;;;2070602;28;20017;-75
2023/07/02 06:13:37;;;;;;;1.58;1.35;;;;;;;;;;2063685;28;20030;-78
2023/07/02 06:14:55;;;;;;;1.40;1.33;;;;;;;;;;2068853;28;20026;-77
2023/07/02 06:16:14;;;;;;;1.63;1.52;;;;;;;;;;2071150;28;20422;-76
2023/07/02 06:17:33;;;;;;;1.50;1.33;;;;;;;;;;2070137;28;20022;-76
2023/07/02 06:18:52;;;;;;;1.63;1.52;;;;;;;;;;2070314;28;20022;-79
2023/07/02 06:20:11;;;;;;;1.63;1.52;;;;;;;;;;2073123;28;20038;-76
2023/07/02 06:21:30;;;;;;;4.72;4.25;;;;;;;;;;2064190;28;20151;-76
2023/07/02 06:22:49;;;;;;;2.55;2.40;;;;;;;;;;2058641;28;20026;-76
2023/07/02 06:24:07;;;;;;;2.25;2.05;;;;;;;;;;2068354;28;20547;-76
2023/07/02 06:25:26;;;;;;;3.20;1.90;;;;;;;;;;2071614;28;20041;-76
2023/07/02 06:26:45;;;;;;;3.40;3.20;;;;;;;;;;2073449;28;20030;-77
2023/07/02 06:28:04;;;;;;;2.50;2.30;;;;;;;;;;2072384;28;20399;-77
2023/07/02 06:29:23;;;;;;;3.05;2.15;;;;;;;;;;2060640;28;20042;-77
2023/07/02 06:30:43;;;;;;;3.10;2.22;;;;;;;;;;2070085;28;20427;-77
2023/07/02 06:32:02;;;;;;;3.08;2.88;;;;;;;;;;2064428;28;20026;-76
2023/07/02 06:33:21;;;;;;;2.42;2.22;;;;;;;;;;2068395;28;20022;-76
2023/07/02 06:34:39;;;;;;;2.45;1.95;;;;;;;;;;2069946;28;20038;-76
2023/07/02 06:35:58;;;;;;;2.05;1.95;;;;;;;;;;2062778;28;20050;-76
2023/07/02 06:37:17;;;;;;;1.92;1.67;;;;;;;;;;2067997;28;20022;-76
2023/07/02 06:38:36;;;;;;;2.63;2.15;;;;;;;;;;2071477;28;20109;-76
2023/07/02 06:39:56;;;;;;;2.10;1.95;;;;;;;;;;2062890;28;20537;-77
2023/07/02 06:41:15;;;;;;;6.57;5.88;;;;;;;;;;2068317;28;20030;-76
2023/07/02 06:42:38;;;;;;;3.92;3.70;;;;;;;;;;2070137;28;20026;-76
2023/07/02 06:43:57;;;;;;;3.05;2.85;;;;;;;;;;2071642;28;20993;-76
2023/07/02 06:45:15;;;;;;;2.78;2.30;;;;;;;;;;2062102;28;20113;-76
2023/07/02 06:46:34;;;;;;;6.63;6.05;;;;;;;;;;2065485;28;20093;-77
2023/07/02 06:47:53;;;;;;;46.53;28.83;;;;;;;;;;2059173;28;20030;-77
2023/07/02 06:49:12;;;;;;;17.92;13.77;;;;;;;;;;2062280;28;20030;-78
2023/07/02 06:50:31;;;;;;;10.18;7.65;;;;;;;;;;2062158;28;20034;-77
2023/07/02 06:51:50;;;;;;;4.07;3.67;;;;;;;;;;2070160;28;20030;-77
2023/07/02 06:53:09;;;;;;;5.18;4.78;;;;;;;;;;2069352;28;20034;-77
2023/07/02 06:54:28;;;;;;;5.85;5.35;;;;;;;;;;2072780;28;20122;-75
2023/07/02 06:55:47;;;;;;;3.63;2.85;;;;;;;;;;2070350;28;20030;-77
2023/07/02 06:57:06;;;;;;;3.50;3.30;;;;;;;;;;2059967;28;20523;-76
2023/07/02 06:58:26;;;;;;;12.32;10.93;;;;;;;;;;2069570;28;20038;-77
2023/07/02 06:59:45;;;;;;;7.80;4.95;;;;;;;;;;2071910;28;20038;-78
2023/07/02 07:01:04;;;;;;;5.63;5.05;;;;;;;;;;2069890;28;20065;-77
2023/07/02 07:02:23;;;;;;;3.45;3.22;;;;;;;;;;2072192;28;20459;-78
2023/07/02 07:03:42;;;;;;;19.42;17.35;;;;;;;;;;2073354;28;20034;-77
2023/07/02 07:05:04;;;;;;;18.52;15.38;;;;;;;;;;2064160;28;20035;-78
2023/07/02 07:06:23;;;;;;;16.35;14.77;;;;;;;;;;2070692;28;20442;-79
2023/07/02 07:07:42;;;;;;;24.60;21.98;;;;;;;;;;2072038;28;20037;-78
2023/07/02 07:09:01;;;;;;;6.45;5.95;;;;;;;;;;2064489;28;20591;-78
2023/07/02 07:10:20;;;;;;;26.27;23.38;;;;;;;;;;2069975;28;20034;-77
2023/07/02 07:11:39;;;;;;;11.48;10.20;;;;;;;;;;2067555;28;20026;-79
2023/07/02 07:12:57;;;;;;;22.48;18.88;;;;;;;;;;2059806;28;20037;-77
2023/07/02 07:14:16;;;;;;;11.73;7.63;;;;;;;;;;2067979;28;20022;-78
2023/07/02 07:15:35;;;;;;;16.60;14.30;;;;;;;;;;2071007;28;20475;-77
2023/07/02 07:16:54;;;;;;;3.90;3.60;;;;;;;;;;2064383;28;20527;-76
2023/07/02 07:18:13;;;;;;;2.25;2.08;;;;;;;;;;2068425;28;20582;-76
2023/07/02 07:19:32;;;;;;;8.25;5.90;;;;;;;;;;2070723;28;20033;-76
2023/07/02 07:20:52;;;;;;;3.42;3.15;;;;;;;;;;2069943;28;20030;-77
2023/07/02 07:22:11;;;;;;;3.58;3.33;;;;;;;;;;2071673;28;20025;-76
2023/07/02 07:23:30;;;;;;;4.18;3.88;;;;;;;;;;2063596;28;20039;-77
2023/07/02 07:24:50;;;;;;;5.03;4.57;;;;;;;;;;2068673;28;20113;-77
2023/07/02 07:26:09;;;;;;;3.05;2.67;;;;;;;;;;2072694;28;20030;-76
2023/07/02 07:27:28;;;;;;;3.30;2.28;;;;;;;;;;2072654;28;20134;-74
2023/07/02 07:28:47;;;;;;;4.65;2.75;;;;;;;;;;2062491;28;20038;-76
2023/07/02 07:30:06;;;;;;;2.38;2.17;;;;;;;;;;2062778;28;20037;-75
2023/07/02 07:31:25;;;;;;;2.33;2.10;;;;;;;;;;2068492;28;20033;-75
2023/07/02 07:32:44;;;;;;;1.83;1.73;;;;;;;;;;2062777;28;20026;-75
2023/07/02 07:34:03;;;;;;;2.72;2.53;;;;;;;;;;2068535;28;20255;-74
2023/07/02 07:35:22;;;;;;;3.17;2.88;;;;;;;;;;2070605;28;20037;-75
2023/07/02 07:36:40;;;;;;;2.75;1.80;;;;;;;;;;2070344;28;20030;-76
2023/07/02 07:38:00;;;;;;;1.60;1.50;;;;;;;;;;2069699;28;20061;-75
2023/07/02 07:39:18;;;;;;;3.13;2.80;;;;;;;;;;2071042;28;20030;-75
2023/07/02 07:40:38;;;;;;;2.40;2.15;;;;;;;;;;2071687;28;20022;-75
2023/07/02 07:41:57;;;;;;;2.20;2.00;;;;;;;;;;2071943;28;20030;-76
2023/07/02 07:43:17;;;;;;;2.88;1.80;;;;;;;;;;2072076;28;20429;-75
2023/07/02 07:44:36;;;;;;;2.72;2.53;;;;;;;;;;2068717;28;20034;-76
2023/07/02 07:45:56;;;;;;;3.92;2.20;;;;;;;;;;2070552;28;20018;-76
2023/07/02 07:47:15;;;;;;;4.45;2.42;;;;;;;;;;2071638;28;20108;-74
2023/07/02 07:48:34;;;;;;;6.40;2.53;;;;;;;;;;2068995;28;20025;-75
2023/07/02 07:49:53;;;;;;;2.33;2.20;;;;;;;;;;2074142;28;20503;-75
2023/07/02 07:51:12;;;;;;;2.10;2.00;;;;;;;;;;2068346;28;20026;-75
2023/07/02 07:52:31;;;;;;;2.22;2.03;;;;;;;;;;2066536;28;20022;-77
2023/07/02 07:53:49;;;;;;;2.33;2.22;;;;;;;;;;2067815;28;20403;-76
2023/07/02 07:55:08;;;;;;;3.08;2.42;;;;;;;;;;2070939;28;20391;-75
2023/07/02 07:56:28;;;;;;;2.88;2.38;;;;;;;;;;2070404;28;20027;-79